createdAt,value
2022-11-25T00:01:01.000Z,0
2022-11-25T00:02:17.000Z,0
2022-11-25T00:03:32.000Z,0
2022-11-25T00:04:49.000Z,0
2022-11-25T00:07:21.000Z,0
2022-11-25T00:08:38.000Z,0
2022-11-25T00:09:54.000Z,0
2022-11-25T00:11:10.000Z,0
2022-11-25T00:12:26.000Z,0
2022-11-25T00:13:43.000Z,0
2022-11-25T00:14:59.000Z,0
2022-11-25T00:16:15.000Z,0
2022-11-25T00:17:32.000Z,0
2022-11-25T00:18:48.000Z,0
2022-11-25T00:20:03.000Z,0
2022-11-25T00:21:19.000Z,0
2022-11-25T00:23:50.000Z,0
2022-11-25T00:25:06.000Z,0
2022-11-25T00:26:23.000Z,0
2022-11-25T00:27:39.000Z,0
2022-11-25T00:30:12.000Z,0
2022-11-25T00:31:28.000Z,0
2022-11-25T00:32:44.000Z,0
2022-11-25T00:34:00.000Z,0
2022-11-25T00:35:17.000Z,0
2022-11-25T00:36:33.000Z,0
2022-11-25T00:37:49.000Z,0
2022-11-25T00:39:05.000Z,0
2022-11-25T00:40:21.000Z,0
2022-11-25T00:41:37.000Z,0
2022-11-25T00:42:53.000Z,0
2022-11-25T00:44:10.000Z,0
2022-11-25T00:45:26.000Z,0
2022-11-25T00:47:59.000Z,0
2022-11-25T00:49:14.000Z,0
2022-11-25T00:50:29.000Z,0
2022-11-25T00:51:46.000Z,0
2022-11-25T00:53:02.000Z,0
2022-11-25T00:54:18.000Z,0
2022-11-25T00:55:34.000Z,0
2022-11-25T00:56:51.000Z,0
2022-11-25T00:58:07.000Z,0
2022-11-25T00:59:23.000Z,0
2022-11-25T01:00:40.000Z,0
2022-11-25T01:01:56.000Z,0
2022-11-25T01:03:11.000Z,0
2022-11-25T01:04:26.000Z,0
2022-11-25T01:05:43.000Z,0
2022-11-25T01:06:59.000Z,0
2022-11-25T01:08:15.000Z,0
2022-11-25T01:09:32.000Z,0
2022-11-25T01:10:48.000Z,0
2022-11-25T01:12:04.000Z,0
2022-11-25T01:14:37.000Z,0
2022-11-25T01:15:53.000Z,0
2022-11-25T01:18:26.000Z,0
2022-11-25T01:19:41.000Z,0
2022-11-25T01:20:56.000Z,0
2022-11-25T01:22:12.000Z,0
2022-11-25T01:23:29.000Z,0
2022-11-25T01:24:45.000Z,0
2022-11-25T01:26:01.000Z,0
2022-11-25T01:27:18.000Z,0
2022-11-25T01:28:34.000Z,0
2022-11-25T01:29:50.000Z,0
2022-11-25T01:31:07.000Z,0
2022-11-25T01:32:23.000Z,0
2022-11-25T01:33:38.000Z,0
2022-11-25T01:34:53.000Z,0
2022-11-25T01:36:10.000Z,0
2022-11-25T01:37:26.000Z,0
2022-11-25T01:38:42.000Z,0
2022-11-25T01:39:59.000Z,0
2022-11-25T01:41:15.000Z,0
2022-11-25T01:42:31.000Z,0
2022-11-25T01:43:47.000Z,0
2022-11-25T01:45:04.000Z,0
2022-11-25T01:46:20.000Z,0
2022-11-25T01:47:35.000Z,0
2022-11-25T01:48:51.000Z,0
2022-11-25T01:50:07.000Z,0
2022-11-25T01:52:39.000Z,0
2022-11-25T01:53:56.000Z,0
2022-11-25T01:55:12.000Z,0
2022-11-25T01:56:28.000Z,0
2022-11-25T01:57:45.000Z,0
2022-11-25T01:59:01.000Z,0
2022-11-25T02:00:17.000Z,0
2022-11-25T02:01:33.000Z,0
2022-11-25T02:02:50.000Z,0
2022-11-25T02:04:06.000Z,0
2022-11-25T02:05:21.000Z,0
2022-11-25T02:06:38.000Z,0
2022-11-25T02:07:54.000Z,0
2022-11-25T02:09:10.000Z,0
2022-11-25T02:10:27.000Z,0
2022-11-25T02:11:43.000Z,0
2022-11-25T02:14:15.000Z,0
2022-11-25T02:15:32.000Z,0
2022-11-25T02:16:48.000Z,0
2022-11-25T02:18:04.000Z,0
2022-11-25T02:19:21.000Z,0
2022-11-25T02:20:37.000Z,0
2022-11-25T02:21:52.000Z,0
2022-11-25T02:23:08.000Z,0
2022-11-25T02:24:25.000Z,0
2022-11-25T02:25:41.000Z,0
2022-11-25T02:26:57.000Z,0
2022-11-25T02:28:14.000Z,0
2022-11-25T02:30:46.000Z,0
2022-11-25T02:32:02.000Z,0
2022-11-25T02:33:19.000Z,0
2022-11-25T02:34:35.000Z,0
2022-11-25T02:35:51.000Z,0
2022-11-25T02:37:08.000Z,0
2022-11-25T02:38:23.000Z,0
2022-11-25T02:39:39.000Z,0
2022-11-25T02:40:55.000Z,0
2022-11-25T02:43:28.000Z,0
2022-11-25T02:44:44.000Z,0
2022-11-25T02:46:01.000Z,0
2022-11-25T02:47:17.000Z,0
2022-11-25T02:48:33.000Z,0
2022-11-25T02:49:49.000Z,0
2022-11-25T02:51:06.000Z,0
2022-11-25T02:52:22.000Z,0
2022-11-25T02:53:38.000Z,0
2022-11-25T02:54:54.000Z,0
2022-11-25T02:56:10.000Z,0
2022-11-25T02:59:59.000Z,0
2022-11-25T03:01:14.000Z,0
2022-11-25T03:02:29.000Z,0
2022-11-25T03:03:45.000Z,0
2022-11-25T03:05:01.000Z,0
2022-11-25T03:06:17.000Z,0
2022-11-25T03:08:50.000Z,0
2022-11-25T03:10:06.000Z,0
2022-11-25T03:11:22.000Z,0
2022-11-25T03:12:39.000Z,0
2022-11-25T03:13:55.000Z,0
2022-11-25T03:15:11.000Z,0
2022-11-25T03:16:28.000Z,0
2022-11-25T03:17:44.000Z,0
2022-11-25T03:19:00.000Z,0
2022-11-25T03:21:32.000Z,0
2022-11-25T03:22:48.000Z,0
2022-11-25T03:25:20.000Z,0
2022-11-25T03:26:35.000Z,0
2022-11-25T03:27:50.000Z,0
2022-11-25T03:30:23.000Z,0
2022-11-25T03:31:39.000Z,0
2022-11-25T03:32:55.000Z,0
2022-11-25T03:34:12.000Z,0
2022-11-25T03:35:28.000Z,0
2022-11-25T03:36:44.000Z,0
2022-11-25T03:38:01.000Z,0
2022-11-25T03:39:17.000Z,0
2022-11-25T03:40:33.000Z,0
2022-11-25T03:41:49.000Z,0
2022-11-25T03:43:06.000Z,0
2022-11-25T03:44:21.000Z,0
2022-11-25T03:45:37.000Z,0
2022-11-25T03:46:54.000Z,0
2022-11-25T03:48:10.000Z,0
2022-11-25T03:49:26.000Z,0
2022-11-25T03:53:15.000Z,0
2022-11-25T03:54:31.000Z,0
2022-11-25T03:55:48.000Z,0
2022-11-25T03:57:04.000Z,0
2022-11-25T03:58:20.000Z,0
2022-11-25T03:59:36.000Z,0
2022-11-25T04:00:52.000Z,0
2022-11-25T04:02:08.000Z,0
2022-11-25T04:03:24.000Z,0
2022-11-25T04:04:41.000Z,0
2022-11-25T04:05:57.000Z,0
2022-11-25T04:08:29.000Z,0
2022-11-25T04:09:46.000Z,0
2022-11-25T04:12:18.000Z,0
2022-11-25T04:13:35.000Z,0
2022-11-25T04:14:51.000Z,0
2022-11-25T04:16:07.000Z,0
2022-11-25T04:17:23.000Z,0
2022-11-25T04:18:39.000Z,0
2022-11-25T04:19:55.000Z,0
2022-11-25T04:21:11.000Z,0
2022-11-25T04:22:28.000Z,0
2022-11-25T04:23:44.000Z,0
2022-11-25T04:25:00.000Z,0
2022-11-25T04:26:17.000Z,0
2022-11-25T04:27:33.000Z,0
2022-11-25T04:28:49.000Z,0
2022-11-25T04:30:05.000Z,0
2022-11-25T04:31:22.000Z,0
2022-11-25T04:32:38.000Z,0
2022-11-25T04:33:54.000Z,0
2022-11-25T04:35:10.000Z,0
2022-11-25T04:36:25.000Z,0
2022-11-25T04:37:41.000Z,0
2022-11-25T04:38:57.000Z,0
2022-11-25T04:40:14.000Z,0
2022-11-25T04:41:30.000Z,0
2022-11-25T04:42:46.000Z,0
2022-11-25T04:44:03.000Z,0
2022-11-25T04:45:19.000Z,0
2022-11-25T04:46:35.000Z,0
2022-11-25T04:47:51.000Z,0
2022-11-25T04:50:23.000Z,0
2022-11-25T04:51:38.000Z,0
2022-11-25T04:52:55.000Z,0
2022-11-25T04:54:11.000Z,0
2022-11-25T04:55:27.000Z,0
2022-11-25T04:58:00.000Z,0
2022-11-25T04:59:15.000Z,0
2022-11-25T05:00:30.000Z,0
2022-11-25T05:03:03.000Z,0
2022-11-25T05:04:19.000Z,0
2022-11-25T05:05:36.000Z,0
2022-11-25T05:06:52.000Z,0
2022-11-25T05:08:08.000Z,0
2022-11-25T05:09:24.000Z,0
2022-11-25T05:11:57.000Z,0
2022-11-25T05:13:13.000Z,0
2022-11-25T05:15:46.000Z,0
2022-11-25T05:17:01.000Z,0
2022-11-25T05:18:17.000Z,0
2022-11-25T05:19:34.000Z,0
2022-11-25T05:20:50.000Z,0
2022-11-25T05:22:06.000Z,0
2022-11-25T05:23:23.000Z,0
2022-11-25T05:24:39.000Z,0
2022-11-25T05:25:55.000Z,0
2022-11-25T05:27:11.000Z,0
2022-11-25T05:28:28.000Z,0
2022-11-25T05:29:44.000Z,0
2022-11-25T05:31:00.000Z,0
2022-11-25T05:32:17.000Z,0
2022-11-25T05:33:32.000Z,0
2022-11-25T05:34:48.000Z,0
2022-11-25T05:36:05.000Z,0
2022-11-25T05:37:21.000Z,0
2022-11-25T05:38:36.000Z,0
2022-11-25T05:41:08.000Z,0
2022-11-25T05:43:40.000Z,0
2022-11-25T05:44:57.000Z,0
2022-11-25T05:47:29.000Z,0
2022-11-25T05:48:45.000Z,0
2022-11-25T05:50:02.000Z,0
2022-11-25T05:51:18.000Z,0
2022-11-25T05:52:34.000Z,0
2022-11-25T05:53:51.000Z,0
2022-11-25T05:55:07.000Z,0
2022-11-25T05:56:22.000Z,0
2022-11-25T05:57:37.000Z,0
2022-11-25T05:58:54.000Z,0
2022-11-25T06:00:10.000Z,0
2022-11-25T06:01:26.000Z,0
2022-11-25T06:02:43.000Z,0
2022-11-25T06:03:59.000Z,0
2022-11-25T06:05:15.000Z,0
2022-11-25T06:06:31.000Z,0
2022-11-25T06:07:48.000Z,0
2022-11-25T06:09:04.000Z,0
2022-11-25T06:10:20.000Z,0
2022-11-25T06:11:36.000Z,0
2022-11-25T06:12:51.000Z,0
2022-11-25T06:14:07.000Z,0
2022-11-25T06:15:24.000Z,0
2022-11-25T06:16:40.000Z,0
2022-11-25T06:17:56.000Z,0
2022-11-25T06:19:12.000Z,0
2022-11-25T06:20:29.000Z,0
2022-11-25T06:21:45.000Z,0
2022-11-25T06:23:01.000Z,0
2022-11-25T06:24:18.000Z,1
2022-11-25T06:25:33.000Z,0
2022-11-25T06:26:48.000Z,0
2022-11-25T06:28:04.000Z,0
2022-11-25T06:29:21.000Z,0
2022-11-25T06:30:37.000Z,1
2022-11-25T06:31:53.000Z,1
2022-11-25T06:33:09.000Z,1
2022-11-25T06:34:26.000Z,1
2022-11-25T06:35:42.000Z,1
2022-11-25T06:36:58.000Z,1
2022-11-25T06:38:14.000Z,1
2022-11-25T06:39:31.000Z,1
2022-11-25T06:40:47.000Z,0
2022-11-25T06:42:03.000Z,2
2022-11-25T06:44:35.000Z,0
2022-11-25T06:45:51.000Z,2
2022-11-25T06:47:07.000Z,1
2022-11-25T06:48:23.000Z,1
2022-11-25T06:50:56.000Z,2
2022-11-25T06:52:11.000Z,3
2022-11-25T06:53:26.000Z,6
2022-11-25T06:54:43.000Z,8
2022-11-25T06:55:59.000Z,9
2022-11-25T06:58:31.000Z,10
2022-11-25T06:59:48.000Z,13
2022-11-25T07:01:04.000Z,13
2022-11-25T07:02:20.000Z,13
2022-11-25T07:03:36.000Z,17
2022-11-25T07:04:52.000Z,16
2022-11-25T07:06:09.000Z,18
2022-11-25T07:07:25.000Z,19
2022-11-25T07:09:57.000Z,20
2022-11-25T07:11:13.000Z,24
2022-11-25T07:12:28.000Z,23
2022-11-25T07:13:44.613Z,25
2022-11-25T07:15:00.000Z,26
2022-11-25T07:16:17.000Z,27
2022-11-25T07:17:33.000Z,27
2022-11-25T07:18:48.000Z,26
2022-11-25T07:20:04.000Z,28
2022-11-25T07:22:37.000Z,33
2022-11-25T07:25:09.000Z,51
2022-11-25T07:26:25.000Z,56
2022-11-25T07:27:42.000Z,61
2022-11-25T07:28:58.000Z,64
2022-11-25T07:30:14.000Z,68
2022-11-25T07:31:30.000Z,65
2022-11-25T07:32:47.000Z,65
2022-11-25T07:34:03.000Z,67
2022-11-25T07:35:18.000Z,67
2022-11-25T07:36:34.000Z,69
2022-11-25T07:39:07.000Z,74
2022-11-25T07:40:23.000Z,77
2022-11-25T07:41:39.000Z,76
2022-11-25T07:44:12.000Z,83
2022-11-25T07:45:28.000Z,90
2022-11-25T07:46:44.000Z,104
2022-11-25T07:48:00.000Z,119
2022-11-25T07:49:17.000Z,132
2022-11-25T07:51:49.000Z,156
2022-11-25T07:54:21.000Z,165
2022-11-25T07:55:37.000Z,171
2022-11-25T07:56:53.000Z,179
2022-11-25T07:58:09.000Z,195
2022-11-25T07:59:26.000Z,216
2022-11-25T08:00:42.000Z,236
2022-11-25T08:01:58.000Z,252
2022-11-25T08:03:14.000Z,260
2022-11-25T08:04:31.000Z,253
2022-11-25T08:05:47.000Z,237
2022-11-25T08:07:03.000Z,228
2022-11-25T08:08:19.000Z,237
2022-11-25T08:09:34.000Z,246
2022-11-25T08:10:51.000Z,234
2022-11-25T08:13:23.000Z,225
2022-11-25T08:14:39.000Z,324
2022-11-25T08:15:56.000Z,404
2022-11-25T08:17:12.000Z,410
2022-11-25T08:18:28.000Z,387
2022-11-25T08:19:44.000Z,362
2022-11-25T08:21:00.000Z,334
2022-11-25T08:22:15.000Z,316
2022-11-25T08:23:31.000Z,304
2022-11-25T08:24:47.000Z,293
2022-11-25T08:26:04.000Z,300
2022-11-25T08:27:20.000Z,310
2022-11-25T08:29:52.000Z,274
2022-11-25T08:31:08.000Z,258
2022-11-25T08:32:25.000Z,257
2022-11-25T08:33:41.000Z,265
2022-11-25T08:34:57.000Z,375
2022-11-25T08:36:13.000Z,382
2022-11-25T08:38:46.000Z,730
2022-11-25T08:40:01.000Z,684
2022-11-25T08:41:16.000Z,552
2022-11-25T08:42:33.000Z,279
2022-11-25T08:43:49.000Z,620
2022-11-25T08:45:05.000Z,1154
2022-11-25T08:46:21.000Z,3992
2022-11-25T08:48:54.000Z,4553
2022-11-25T08:51:26.000Z,2844
2022-11-25T08:52:42.000Z,1941
2022-11-25T08:53:59.000Z,3157
2022-11-25T08:55:15.000Z,1256
2022-11-25T08:56:31.000Z,1066
2022-11-25T08:57:46.000Z,918
2022-11-25T08:59:03.000Z,365
2022-11-25T09:00:19.000Z,572
2022-11-25T09:01:35.000Z,1001
2022-11-25T09:02:51.000Z,2293
2022-11-25T09:04:08.000Z,15065
2022-11-25T09:05:24.000Z,8870
2022-11-25T09:06:40.000Z,11099
2022-11-25T09:07:56.000Z,5670
2022-11-25T09:09:13.000Z,75242
2022-11-25T09:10:29.000Z,10573
2022-11-25T09:11:45.000Z,80103
2022-11-25T09:13:01.000Z,79851
2022-11-25T09:14:16.000Z,74169
2022-11-25T09:16:48.000Z,7585
2022-11-25T09:18:03.000Z,2358
2022-11-25T09:19:18.000Z,76019
2022-11-25T09:21:51.000Z,27338
2022-11-25T09:24:23.000Z,3434
2022-11-25T09:25:40.000Z,2456
2022-11-25T09:26:56.000Z,5066
2022-11-25T09:29:28.000Z,1891
2022-11-25T09:30:45.000Z,9195
2022-11-25T09:32:01.000Z,7102
2022-11-25T09:33:17.000Z,2725
2022-11-25T09:34:33.000Z,2435
2022-11-25T09:35:49.000Z,15530
2022-11-25T09:37:04.000Z,5802
2022-11-25T09:38:20.000Z,6038
2022-11-25T09:39:36.000Z,83039
2022-11-25T09:40:52.000Z,80575
2022-11-25T09:42:09.000Z,73776
2022-11-25T09:43:25.000Z,30612
2022-11-25T09:44:41.000Z,5125
2022-11-25T09:45:57.000Z,20569
2022-11-25T09:47:14.000Z,23565
2022-11-25T09:49:46.000Z,82548
2022-11-25T09:52:19.000Z,82855
2022-11-25T09:54:50.000Z,4286
2022-11-25T09:57:23.000Z,80264
2022-11-25T09:58:39.000Z,76393
2022-11-25T09:59:55.000Z,80109
2022-11-25T10:01:11.000Z,82884
2022-11-25T10:02:27.000Z,64785
2022-11-25T10:08:49.000Z,4459
2022-11-25T10:10:04.000Z,8929
2022-11-25T10:11:20.000Z,59643
2022-11-25T10:12:36.000Z,8851
2022-11-25T10:13:53.000Z,6067
2022-11-25T10:15:09.000Z,6336
2022-11-25T10:16:25.000Z,8503
2022-11-25T10:17:41.000Z,7002
2022-11-25T10:18:58.000Z,10072
2022-11-25T10:20:14.000Z,2945
2022-11-25T10:21:30.000Z,4925
2022-11-25T10:22:46.000Z,82073
2022-11-25T10:24:02.000Z,63536
2022-11-25T10:25:19.000Z,7080
2022-11-25T10:26:34.000Z,59432
2022-11-25T10:27:50.000Z,3053
2022-11-25T10:29:06.000Z,15092
2022-11-25T10:30:23.000Z,1701
2022-11-25T10:34:11.000Z,2172
2022-11-25T10:35:28.000Z,2498
2022-11-25T10:36:44.000Z,6087
2022-11-25T10:38:00.000Z,5785
2022-11-25T10:39:16.000Z,2792
2022-11-25T10:41:49.000Z,1767
2022-11-25T10:43:04.000Z,1472
2022-11-25T10:45:36.000Z,4393
2022-11-25T10:46:53.000Z,2034
2022-11-25T10:48:09.000Z,78666
2022-11-25T10:49:25.000Z,79402
2022-11-25T10:50:41.000Z,77622
2022-11-25T10:51:58.000Z,70718
2022-11-25T10:53:14.000Z,19822
2022-11-25T10:54:30.000Z,79600
2022-11-25T10:55:46.000Z,79452
2022-11-25T10:58:19.000Z,77596
2022-11-25T10:59:34.000Z,83736
2022-11-25T11:00:50.000Z,82802
2022-11-25T11:02:07.000Z,71804
2022-11-25T11:03:23.000Z,24307
2022-11-25T11:04:39.000Z,8026
2022-11-25T11:05:55.000Z,7272
2022-11-25T11:07:11.000Z,8283
2022-11-25T11:08:28.000Z,7855
2022-11-25T11:11:00.000Z,7682
2022-11-25T11:12:16.000Z,6865
2022-11-25T11:13:33.000Z,6494
2022-11-25T11:14:49.000Z,3284
2022-11-25T11:16:04.000Z,7570
2022-11-25T11:17:20.000Z,83890
2022-11-25T11:19:53.000Z,80496
2022-11-25T11:21:09.000Z,80036
2022-11-25T11:22:25.000Z,79189
2022-11-25T11:26:14.000Z,80536
2022-11-25T11:27:30.000Z,59883
2022-11-25T11:28:46.000Z,82982
2022-11-25T11:30:03.000Z,73813
2022-11-25T11:31:19.000Z,34098
2022-11-25T11:32:34.000Z,10365
2022-11-25T11:33:49.000Z,83253
2022-11-25T11:36:22.000Z,82693
2022-11-25T11:37:38.000Z,83308
2022-11-25T11:38:54.000Z,82943
2022-11-25T11:40:11.000Z,79319
2022-11-25T11:41:27.000Z,76982
2022-11-25T11:42:43.000Z,76299
2022-11-25T11:43:59.000Z,66701
2022-11-25T11:45:15.000Z,20347
2022-11-25T11:49:04.000Z,4897
2022-11-25T11:50:19.000Z,5008
2022-11-25T11:51:36.000Z,7039
2022-11-25T11:52:52.000Z,6463
2022-11-25T11:54:08.000Z,5723
2022-11-25T11:55:24.000Z,6557
2022-11-25T11:56:41.000Z,5668
2022-11-25T11:57:57.000Z,5259
2022-11-25T11:59:13.000Z,5392
2022-11-25T12:01:46.000Z,5312
2022-11-25T12:03:02.000Z,5482
2022-11-25T12:04:18.000Z,5333
2022-11-25T12:05:34.000Z,5033
2022-11-25T12:06:49.000Z,4888
2022-11-25T12:08:06.000Z,4576
2022-11-25T12:09:22.000Z,4512
2022-11-25T12:10:38.000Z,4977
2022-11-25T12:11:54.000Z,5667
2022-11-25T12:13:11.000Z,4869
2022-11-25T12:14:27.000Z,3423
2022-11-25T12:15:42.000Z,3686
2022-11-25T12:18:14.000Z,6058
2022-11-25T12:19:30.000Z,5753
2022-11-25T12:20:46.000Z,7029
2022-11-25T12:22:02.000Z,7150
2022-11-25T12:23:19.000Z,7151
2022-11-25T12:24:35.000Z,5626
2022-11-25T12:28:24.000Z,4208
2022-11-25T12:29:40.000Z,4053
2022-11-25T12:30:56.000Z,4067
2022-11-25T12:32:12.000Z,3942
2022-11-25T12:33:27.000Z,3971
2022-11-25T12:34:43.000Z,3981
2022-11-25T12:35:59.000Z,3763
2022-11-25T12:37:15.000Z,3668
2022-11-25T12:38:31.000Z,3892
2022-11-25T12:39:48.000Z,3969
2022-11-25T12:41:04.000Z,3760
2022-11-25T12:42:20.000Z,3695
2022-11-25T12:43:36.000Z,3459
2022-11-25T12:44:53.000Z,3249
2022-11-25T12:46:09.000Z,3440
2022-11-25T12:47:24.000Z,3586
2022-11-25T12:48:39.000Z,3434
2022-11-25T12:52:28.000Z,3097
2022-11-25T12:53:44.000Z,3075
2022-11-25T12:55:00.000Z,3391
2022-11-25T12:56:17.000Z,3372
2022-11-25T12:57:33.000Z,4007
2022-11-25T12:58:49.000Z,4069
2022-11-25T13:00:05.000Z,3510
2022-11-25T13:01:22.000Z,3339
2022-11-25T13:02:38.000Z,3202
2022-11-25T13:05:09.000Z,2767
2022-11-25T13:06:25.000Z,2580
2022-11-25T13:07:40.000Z,2999
2022-11-25T13:08:56.000Z,4048
2022-11-25T13:10:12.000Z,4180
2022-11-25T13:11:29.000Z,3748
2022-11-25T13:12:45.000Z,3295
2022-11-25T13:14:01.000Z,3103
2022-11-25T13:15:17.000Z,3338
2022-11-25T13:17:50.000Z,3662
2022-11-25T13:19:06.000Z,2902
2022-11-25T13:20:22.000Z,3273
2022-11-25T13:21:38.000Z,2754
2022-11-25T13:22:55.000Z,2137
2022-11-25T13:24:10.000Z,1287
2022-11-25T13:25:26.000Z,2849
2022-11-25T13:26:42.000Z,3368
2022-11-25T13:27:59.000Z,3211
2022-11-25T13:29:15.000Z,1933
2022-11-25T13:30:31.000Z,2119
2022-11-25T13:31:47.000Z,2321
2022-11-25T13:33:04.000Z,1883
2022-11-25T13:34:19.000Z,1285
2022-11-25T13:35:34.000Z,1319
2022-11-25T13:36:50.000Z,1461
2022-11-25T13:38:07.000Z,710
2022-11-25T13:39:23.000Z,1735
2022-11-25T13:40:39.000Z,1422
2022-11-25T13:43:11.000Z,2436
2022-11-25T13:45:44.000Z,1985
2022-11-25T13:47:00.000Z,1387
2022-11-25T13:48:16.000Z,1256
2022-11-25T13:49:33.000Z,1363
2022-11-25T13:52:04.000Z,1951
2022-11-25T13:53:19.000Z,1844
2022-11-25T13:55:51.000Z,1814
2022-11-25T13:57:07.000Z,2232
2022-11-25T13:58:23.000Z,2267
2022-11-25T13:59:40.000Z,2041
2022-11-25T14:00:56.000Z,1761
2022-11-25T14:06:01.000Z,788
2022-11-25T14:07:17.000Z,781
2022-11-25T14:08:33.000Z,852
2022-11-25T14:09:49.000Z,799
2022-11-25T14:11:05.000Z,649
2022-11-25T14:12:21.000Z,546
2022-11-25T14:14:53.000Z,392
2022-11-25T14:16:10.000Z,355
2022-11-25T14:17:26.000Z,296
2022-11-25T14:18:42.000Z,297
2022-11-25T14:19:58.000Z,302
2022-11-25T14:21:15.000Z,309
2022-11-25T14:22:31.000Z,251
2022-11-25T14:23:47.000Z,130
2022-11-25T14:26:19.000Z,481
2022-11-25T14:27:35.000Z,454
2022-11-25T14:28:51.000Z,428
2022-11-25T14:30:07.000Z,465
2022-11-25T14:31:23.000Z,463
2022-11-25T14:32:40.000Z,387
2022-11-25T14:33:56.000Z,309
2022-11-25T14:35:12.000Z,262
2022-11-25T14:37:45.000Z,335
2022-11-25T14:41:33.000Z,523
2022-11-25T14:42:50.000Z,484
2022-11-25T14:44:05.000Z,458
2022-11-25T14:45:21.000Z,452
2022-11-25T14:46:37.000Z,443
2022-11-25T14:47:53.000Z,442
2022-11-25T14:49:10.000Z,430
2022-11-25T14:50:26.000Z,411
2022-11-25T14:51:42.000Z,391
2022-11-25T14:52:58.000Z,358
2022-11-25T14:54:15.000Z,331
2022-11-25T14:55:31.000Z,269
2022-11-25T14:56:47.000Z,229
2022-11-25T14:58:03.000Z,286
2022-11-25T14:59:20.000Z,254
2022-11-25T15:00:35.000Z,304
2022-11-25T15:01:51.000Z,237
2022-11-25T15:03:07.000Z,253
2022-11-25T15:04:24.000Z,276
2022-11-25T15:05:40.000Z,301
2022-11-25T15:06:55.000Z,274
2022-11-25T15:08:10.000Z,222
2022-11-25T15:09:27.000Z,184
2022-11-25T15:14:31.000Z,227
2022-11-25T15:15:48.000Z,186
2022-11-25T15:17:04.000Z,150
2022-11-25T15:18:20.000Z,152
2022-11-25T15:19:36.000Z,148
2022-11-25T15:20:53.000Z,137
2022-11-25T15:22:09.000Z,126
2022-11-25T15:23:25.000Z,111
2022-11-25T15:24:40.000Z,106
2022-11-25T15:25:56.000Z,94
2022-11-25T15:27:12.000Z,86
2022-11-25T15:28:28.000Z,75
2022-11-25T15:29:44.000Z,65
2022-11-25T15:31:01.000Z,63
2022-11-25T15:33:33.000Z,42
2022-11-25T15:34:49.000Z,33
2022-11-25T15:36:05.000Z,29
2022-11-25T15:37:22.000Z,30
2022-11-25T15:38:38.000Z,30
2022-11-25T15:39:54.000Z,24
2022-11-25T15:41:10.000Z,18
2022-11-25T15:42:26.000Z,15
2022-11-25T15:43:42.000Z,10
2022-11-25T15:44:58.000Z,7
2022-11-25T15:46:14.000Z,5
2022-11-25T15:47:31.000Z,5
2022-11-25T15:50:02.000Z,5
2022-11-25T15:51:17.000Z,5
2022-11-25T15:52:34.000Z,3
2022-11-25T15:53:50.000Z,6
2022-11-25T15:55:06.000Z,2
2022-11-25T15:56:22.000Z,1
2022-11-25T15:57:39.000Z,0
2022-11-25T15:58:55.000Z,1
2022-11-25T16:00:10.000Z,2
2022-11-25T16:01:25.000Z,2
2022-11-25T16:02:41.000Z,1
2022-11-25T16:03:58.000Z,1
2022-11-25T16:05:14.000Z,1
2022-11-25T16:06:30.000Z,0
2022-11-25T16:07:47.000Z,0
2022-11-25T16:09:03.000Z,0
2022-11-25T16:10:19.000Z,0
2022-11-25T16:11:35.000Z,0
2022-11-25T16:12:52.000Z,0
2022-11-25T16:14:07.000Z,0
2022-11-25T16:15:22.000Z,0
2022-11-25T16:16:39.000Z,0
2022-11-25T16:17:55.000Z,0
2022-11-25T16:19:11.000Z,0
2022-11-25T16:20:27.000Z,0
2022-11-25T16:21:44.000Z,0
2022-11-25T16:23:00.000Z,0
2022-11-25T16:25:33.000Z,0
2022-11-25T16:28:05.000Z,0
2022-11-25T16:29:21.000Z,0
2022-11-25T16:30:37.000Z,0
2022-11-25T16:31:52.000Z,0
2022-11-25T16:33:08.000Z,0
2022-11-25T16:34:25.000Z,0
2022-11-25T16:35:41.000Z,0
2022-11-25T16:36:57.000Z,0
2022-11-25T16:38:14.000Z,0
2022-11-25T16:39:30.000Z,0
2022-11-25T16:40:46.000Z,0
2022-11-25T16:42:02.000Z,0
2022-11-25T16:43:19.000Z,0
2022-11-25T16:44:34.000Z,0
2022-11-25T16:45:49.000Z,0
2022-11-25T16:47:06.000Z,0
2022-11-25T16:48:22.000Z,0
2022-11-25T16:50:54.000Z,0
2022-11-25T16:52:11.000Z,0
2022-11-25T16:53:27.000Z,0
2022-11-25T16:54:43.000Z,0
2022-11-25T16:56:00.000Z,0
2022-11-25T16:57:16.000Z,0
2022-11-25T16:59:48.000Z,0
2022-11-25T17:01:04.000Z,0
2022-11-25T17:02:19.000Z,0
2022-11-25T17:03:35.000Z,0
2022-11-25T17:06:08.000Z,0
2022-11-25T17:07:24.000Z,0
2022-11-25T17:08:40.000Z,0
2022-11-25T17:09:57.000Z,0
2022-11-25T17:11:13.000Z,0
2022-11-25T17:12:29.000Z,0
2022-11-25T17:13:46.000Z,0
2022-11-25T17:15:02.000Z,0
2022-11-25T17:16:18.000Z,0
2022-11-25T17:18:51.000Z,0
2022-11-25T17:20:06.000Z,0
2022-11-25T17:21:21.000Z,0
2022-11-25T17:22:38.000Z,0
2022-11-25T17:23:54.000Z,0
2022-11-25T17:25:10.000Z,0
2022-11-25T17:26:27.000Z,0
2022-11-25T17:27:43.000Z,0
2022-11-25T17:28:59.000Z,0
2022-11-25T17:30:15.000Z,0
2022-11-25T17:31:32.000Z,0
2022-11-25T17:32:48.000Z,0
2022-11-25T17:35:20.000Z,0
2022-11-25T17:36:35.000Z,0
2022-11-25T17:37:51.000Z,0
2022-11-25T17:39:07.000Z,0
2022-11-25T17:40:24.000Z,0
2022-11-25T17:41:40.000Z,0
2022-11-25T17:42:56.000Z,0
2022-11-25T17:44:13.000Z,0
2022-11-25T17:45:29.000Z,0
2022-11-25T17:46:45.000Z,0
2022-11-25T17:48:01.000Z,0
2022-11-25T17:49:16.000Z,0
2022-11-25T17:50:32.000Z,0
2022-11-25T17:51:48.000Z,0
2022-11-25T17:53:05.000Z,0
2022-11-25T17:54:21.000Z,0
2022-11-25T17:56:54.000Z,0
2022-11-25T17:58:10.000Z,0
2022-11-25T17:59:26.000Z,0
2022-11-25T18:00:42.000Z,0
2022-11-25T18:03:15.000Z,0
2022-11-25T18:04:30.000Z,0
2022-11-25T18:05:46.000Z,0
2022-11-25T18:07:02.000Z,0
2022-11-25T18:08:18.000Z,0
2022-11-25T18:09:34.000Z,0
2022-11-25T18:10:51.000Z,0
2022-11-25T18:12:07.000Z,0
2022-11-25T18:13:23.000Z,0
2022-11-25T18:14:40.000Z,0
2022-11-25T18:15:56.000Z,0
2022-11-25T18:17:12.000Z,0
2022-11-25T18:18:28.000Z,0
2022-11-25T18:19:43.000Z,0
2022-11-25T18:20:59.000Z,0
2022-11-25T18:22:15.000Z,0
2022-11-25T18:23:32.000Z,0
2022-11-25T18:24:48.000Z,0
2022-11-25T18:26:04.000Z,0
2022-11-25T18:27:21.000Z,0
2022-11-25T18:28:37.000Z,0
2022-11-25T18:29:53.000Z,0
2022-11-25T18:31:09.000Z,0
2022-11-25T18:32:25.000Z,0
2022-11-25T18:36:13.000Z,0
2022-11-25T18:37:29.000Z,0
2022-11-25T18:38:45.000Z,0
2022-11-25T18:40:01.000Z,0
2022-11-25T18:41:18.000Z,0
2022-11-25T18:42:34.000Z,0
2022-11-25T18:43:50.000Z,0
2022-11-25T18:45:07.000Z,0
2022-11-25T18:46:23.000Z,0
2022-11-25T18:47:39.000Z,0
2022-11-25T18:48:55.000Z,0
2022-11-25T18:50:11.000Z,0
2022-11-25T18:51:27.000Z,0
2022-11-25T18:52:43.000Z,0
2022-11-25T18:54:00.000Z,0
2022-11-25T18:56:32.000Z,0
2022-11-25T18:57:48.000Z,0
2022-11-25T18:59:05.000Z,0
2022-11-25T19:00:21.000Z,0
2022-11-25T19:01:37.000Z,0
2022-11-25T19:02:54.000Z,0
2022-11-25T19:04:10.000Z,0
2022-11-25T19:06:42.000Z,0
2022-11-25T19:07:58.000Z,0
2022-11-25T19:09:14.000Z,0
2022-11-25T19:10:30.000Z,0
2022-11-25T19:13:03.000Z,0
2022-11-25T19:14:18.000Z,0
2022-11-25T19:15:34.000Z,0
2022-11-25T19:16:50.000Z,0
2022-11-25T19:18:06.000Z,0
2022-11-25T19:19:22.000Z,0
2022-11-25T19:20:39.000Z,0
2022-11-25T19:21:55.000Z,0
2022-11-25T19:23:11.000Z,0
2022-11-25T19:25:44.000Z,0
2022-11-25T19:27:00.000Z,0
2022-11-25T19:28:16.000Z,0
2022-11-25T19:29:33.000Z,0
2022-11-25T19:30:49.000Z,0
2022-11-25T19:32:04.000Z,0
2022-11-25T19:33:21.000Z,0
2022-11-25T19:34:37.000Z,0
2022-11-25T19:35:53.000Z,0
2022-11-25T19:37:09.000Z,0
2022-11-25T19:38:26.000Z,0
2022-11-25T19:39:42.000Z,0
2022-11-25T19:40:58.000Z,0
2022-11-25T19:42:14.000Z,0
2022-11-25T19:43:29.000Z,0
2022-11-25T19:44:45.000Z,0
2022-11-25T19:46:02.000Z,0
2022-11-25T19:47:18.000Z,0
2022-11-25T19:49:50.000Z,0
2022-11-25T19:51:07.000Z,0
2022-11-25T19:52:23.000Z,0
2022-11-25T19:53:39.000Z,0
2022-11-25T19:54:56.000Z,0
2022-11-25T19:56:12.000Z,0
2022-11-25T19:57:28.000Z,0
2022-11-25T19:58:44.000Z,0
2022-11-25T20:00:00.000Z,0
2022-11-25T20:01:16.000Z,0
2022-11-25T20:03:49.000Z,0
2022-11-25T20:05:04.000Z,0
2022-11-25T20:06:19.000Z,0
2022-11-25T20:07:35.000Z,0
2022-11-25T20:08:52.000Z,0
2022-11-25T20:10:08.000Z,0
2022-11-25T20:11:24.000Z,0
2022-11-25T20:12:41.000Z,0
2022-11-25T20:13:57.000Z,0
2022-11-25T20:16:29.000Z,0
2022-11-25T20:17:46.000Z,0
2022-11-25T20:19:02.000Z,0
2022-11-25T20:20:18.000Z,0
2022-11-25T20:21:35.000Z,0